Time;durP1;ratioP1;P1;durP2;ratioP2;P2;SDS_P1;SDS_P2;PMS_P1;PMS_P2;Temp;Humidity;BMP_temperature;BMP_pressure;BME280_temperature;BME280_humidity;BME280_pressure;Samples;Min_cycle;Max_cycle;Signal;HPM_P1;HPM_P2
2022/06/25 00:02:13;;;;;;;2.97;2.20;;;;;;;;;;5075333;28;20423;-93
2022/06/25 00:07:44;;;;;;;2.87;1.80;;;;;;;;;;5075054;28;20491;-94
2022/06/25 00:10:11;;;;;;;2.57;2.27;;;;;;;;;;5072282;28;20466;-94
2022/06/25 00:12:37;;;;;;;1.60;1.50;;;;;;;;;;5067168;28;20469;-94
2022/06/25 00:15:10;;;;;;;2.67;2.10;;;14.40;99.90;;;;;;5072797;28;20479;-93
2022/06/25 00:17:37;;;;;;;3.03;2.20;;;;;;;;;;5070427;28;20525;-94
2022/06/25 00:20:06;;;;;;;2.67;2.47;;;14.40;99.90;;;;;;5073001;28;20466;-94
2022/06/25 00:22:33;;;;;;;2.30;2.13;;;;;;;;;;5072640;28;20469;-93
2022/06/25 00:25:06;;;;;;;2.10;1.90;;;;;;;;;;5069155;28;20477;-93
2022/06/25 00:27:34;;;;;;;3.10;1.97;;;;;;;;;;5064802;28;20529;-93
2022/06/25 00:30:02;;;;;;;1.90;1.80;;;;;;;;;;5066715;28;20442;-93
2022/06/25 00:32:29;;;;;;;1.40;1.30;;;;;;;;;;5062545;28;20584;-94
2022/06/25 00:34:57;;;;;;;3.90;2.53;;;;;;;;;;5068485;28;20518;-95
2022/06/25 00:37:24;;;;;;;2.63;2.43;;;;;;;;;;5072625;28;20510;-95
2022/06/25 00:39:51;;;;;;;2.30;2.00;;;;;;;;;;5069014;28;20537;-93
2022/06/25 00:42:23;;;;;;;2.93;2.23;;;;;;;;;;5072535;28;20506;-94
2022/06/25 00:44:53;;;;;;;2.67;2.43;;;;;;;;;;5073282;28;20501;-93
2022/06/25 00:47:21;;;;;;;3.90;2.13;;;;;;;;;;5066611;28;20439;-95
2022/06/25 00:49:50;;;;;;;6.27;1.80;;;;;;;;;;5068229;28;20474;-91
2022/06/25 00:52:19;;;;;;;2.90;2.30;;;14.30;99.90;;;;;;5070680;28;20899;-94
2022/06/25 00:54:50;;;;;;;2.50;1.70;;;14.30;99.90;;;;;;5066689;28;20447;-94
2022/06/25 00:57:25;;;;;;;3.40;2.00;;;14.30;99.90;;;;;;5068705;28;20431;-93
2022/06/25 00:59:58;;;;;;;3.97;2.03;;;14.30;99.90;;;;;;5071196;28;20488;-94
2022/06/25 01:02:25;;;;;;;2.53;1.80;;;;;;;;;;5072299;28;20796;-95
2022/06/25 01:04:52;;;;;;;2.00;1.90;;;;;;;;;;5071959;28;20478;-93
2022/06/25 01:07:20;;;;;;;2.40;2.20;;;14.20;99.90;;;;;;5073010;28;20445;-92
2022/06/25 01:09:49;;;;;;;2.17;1.97;;;14.20;99.90;;;;;;5069200;28;20481;-95
2022/06/25 01:12:17;;;;;;;3.80;2.70;;;;;;;;;;5076566;22;20446;-93
2022/06/25 01:14:46;;;;;;;1.60;1.47;;;;;;;;;;5062103;28;20534;-94
2022/06/25 01:17:13;;;;;;;2.30;2.10;;;;;;;;;;5067156;28;20475;-93
2022/06/25 01:19:43;;;;;;;2.40;2.20;;;;;;;;;;5067564;28;20488;-95
2022/06/25 01:22:14;;;;;;;1.50;1.40;;;;;;;;;;5063884;28;20454;-93
2022/06/25 01:24:45;;;;;;;2.30;2.10;;;;;;;;;;5068278;28;20430;-94
2022/06/25 01:27:16;;;;;;;3.37;1.90;;;;;;;;;;5070286;28;20434;-95
2022/06/25 01:29:45;;;;;;;5.30;2.10;;;;;;;;;;5068223;28;20446;-94
2022/06/25 01:32:12;;;;;;;1.60;1.50;;;;;;;;;;5068672;28;21124;-93
2022/06/25 01:34:41;;;;;;;1.93;1.73;;;;;;;;;;5070015;28;20423;-93
2022/06/25 01:37:12;;;;;;;2.30;2.10;;;;;;;;;;5075992;28;20516;-92
2022/06/25 01:39:41;;;;;;;2.10;1.70;;;;;;;;;;5069577;28;20569;-94
2022/06/25 01:42:58;;;;;;;2.00;1.80;;;;;;;;;;5069364;22;20557;-91
2022/06/25 01:47:41;;;;;;;2.33;1.93;;;;;;;;;;5050621;28;20453;-94
2022/06/25 01:50:10;;;;;;;3.70;1.90;;;14.10;99.90;;;;;;5048842;28;20446;-93
2022/06/25 01:52:40;;;;;;;1.83;1.73;;;14.10;99.90;;;;;;5042004;28;20459;-94
2022/06/25 01:55:12;;;;;;;2.40;2.20;;;11.50;99.90;;;;;;5003370;28;20556;-93
2022/06/25 01:57:39;;;;;;;2.30;2.10;;;;;;;;;;5028029;22;20478;-92
2022/06/25 02:00:08;;;;;;;2.30;2.10;;;14.00;99.90;;;;;;5068279;28;20485;-94
2022/06/25 02:02:37;;;;;;;3.53;2.03;;;;;;;;;;5069865;28;20557;-93
2022/06/25 02:05:05;;;;;;;1.17;1.07;;;;;;;;;;5064137;28;20485;-93
2022/06/25 02:07:35;;;;;;;2.43;2.23;;;;;;;;;;5061772;28;20506;-95
2022/06/25 02:10:02;;;;;;;2.60;2.00;;;;;;;;;;5061046;28;20455;-95
2022/06/25 02:12:32;;;;;;;2.47;1.60;;;;;;;;;;5067399;28;20450;-95
2022/06/25 02:15:00;;;;;;;2.73;2.00;;;;;;;;;;5068693;28;20458;-94
2022/06/25 02:17:27;;;;;;;2.37;2.17;;;;;;;;;;5068408;28;20451;-94
2022/06/25 02:19:57;;;;;;;3.20;1.30;;;;;;;;;;5065975;28;20474;-93
2022/06/25 02:22:24;;;;;;;2.20;2.10;;;;;;;;;;5062400;28;20481;-91
2022/06/25 02:24:53;;;;;;;6.60;2.30;;;;;;;;;;5078125;28;20418;-92
2022/06/25 02:27:20;;;;;;;2.43;1.73;;;;;;;;;;5072309;28;20453;-94
2022/06/25 02:29:48;;;;;;;2.20;2.00;;;;;;;;;;5062684;28;20431;-92
2022/06/25 02:32:16;;;;;;;2.00;1.90;;;;;;;;;;5062865;28;20434;-94
2022/06/25 02:34:43;;;;;;;2.30;2.07;;;;;;;;;;5056630;28;20443;-93
2022/06/25 02:37:10;;;;;;;1.80;1.70;;;;;;;;;;5055131;28;20439;-94
2022/06/25 02:39:37;;;;;;;2.87;2.57;;;;;;;;;;5054813;28;20459;-93
2022/06/25 02:42:04;;;;;;;3.53;2.23;;;;;;;;;;5055923;28;20438;-94
2022/06/25 02:44:31;;;;;;;2.47;2.13;;;;;;;;;;5052839;28;20456;-95
2022/06/25 02:47:00;;;;;;;2.40;2.20;;;;;;;;;;5054189;28;20837;-95
2022/06/25 02:49:27;;;;;;;2.70;2.47;;;;;;;;;;5058639;28;20447;-94
2022/06/25 02:51:54;;;;;;;2.30;1.73;;;;;;;;;;5065542;28;20454;-93
2022/06/25 02:54:21;;;;;;;2.40;2.20;;;;;;;;;;5050723;28;20431;-95
2022/06/25 02:59:33;;;;;;;2.27;2.07;;;;;;;;;;5054931;28;20472;-94
2022/06/25 03:02:02;;;;;;;2.47;2.27;;;13.30;99.90;;;;;;5056016;28;20482;-94
2022/06/25 03:04:29;;;;;;;7.23;2.60;;;;;;;;;;5056985;28;20450;-94
2022/06/25 03:06:56;;;;;;;2.37;2.17;;;;;;;;;;5053673;28;20435;-94
2022/06/25 03:09:24;;;;;;;2.27;2.07;;;;;;;;;;4991790;28;20465;-94
2022/06/25 03:11:51;;;;;;;1.93;1.83;;;;;;;;;;4999721;28;20536;-94
2022/06/25 03:14:19;;;;;;;4.63;2.00;;;;;;;;;;5001269;28;20445;-94
2022/06/25 03:16:46;;;;;;;2.60;2.23;;;;;;;;;;5004821;28;20438;-89
2022/06/25 03:19:17;;;;;;;6.90;2.60;;;;;;;;;;4998660;28;20434;-95
2022/06/25 03:21:45;;;;;;;2.17;1.97;;;;;;;;;;4995059;28;20493;-94
2022/06/25 03:24:14;;;;;;;1.50;1.40;;;13.60;99.90;;;;;;4997109;28;20964;-93
2022/06/25 03:26:41;;;;;;;2.83;2.13;;;;;;;;;;5012461;28;20453;-94
2022/06/25 03:29:08;;;;;;;1.50;1.40;;;;;;;;;;5066925;28;20457;-94
2022/06/25 03:31:36;;;;;;;2.57;2.37;;;;;;;;;;5064503;28;20441;-96
2022/06/25 03:34:03;;;;;;;2.00;1.90;;;;;;;;;;5061555;28;20446;-95
2022/06/25 03:36:31;;;;;;;3.93;2.10;;;13.70;99.90;;;;;;5059292;28;20434;-93
2022/06/25 03:38:58;;;;;;;2.83;1.90;;;;;;;;;;5061224;28;20462;-94
2022/06/25 03:41:35;;;;;;;1.70;1.40;;;;;;;;;;5066965;28;20501;-95
2022/06/25 03:44:03;;;;;;;1.73;1.63;;;;;;;;;;5064121;28;20430;-94
2022/06/25 03:46:31;;;;;;;1.80;1.70;;;13.80;99.90;;;;;;5062878;28;20446;-93
2022/06/25 03:48:58;;;;;;;1.77;1.67;;;;;;;;;;5063360;28;20541;-93
2022/06/25 03:51:25;;;;;;;2.23;2.03;;;;;;;;;;5059808;28;20426;-93
2022/06/25 03:53:54;;;;;;;2.90;2.20;;;13.70;99.90;;;;;;5058023;28;20446;-92
2022/06/25 03:56:26;;;;;;;2.27;2.07;;;13.70;99.90;;;;;;5062521;28;20439;-93
2022/06/25 03:58:54;;;;;;;2.07;1.90;;;;;;;;;;5061839;28;20532;-93
2022/06/25 04:01:23;;;;;;;2.10;1.90;;;;;;;;;;5064178;28;20485;-93
2022/06/25 04:03:54;;;;;;;2.00;1.80;;;;;;;;;;5070553;28;20446;-93
2022/06/25 04:06:21;;;;;;;2.17;1.97;;;;;;;;;;5072110;28;20505;-92
2022/06/25 04:08:48;;;;;;;5.13;2.10;;;;;;;;;;5063323;28;20874;-93
2022/06/25 04:11:17;;;;;;;1.80;1.70;;;;;;;;;;5060125;28;20438;-95
2022/06/25 04:13:44;;;;;;;3.10;2.03;;;;;;;;;;5060355;28;20442;-92
2022/06/25 04:16:11;;;;;;;5.57;2.23;;;;;;;;;;5062644;28;20431;-93
2022/06/25 04:18:38;;;;;;;2.67;2.40;;;;;;;;;;5063658;28;20446;-92
2022/06/25 04:21:05;;;;;;;1.90;1.73;;;;;;;;;;5063609;28;20485;-94
2022/06/25 04:23:32;;;;;;;4.23;2.50;;;;;;;;;;5057624;28;20459;-93
2022/06/25 04:25:59;;;;;;;1.70;1.60;;;;;;;;;;5058112;28;20449;-93
2022/06/25 04:31:12;;;;;;;2.20;2.00;;;;;;;;;;5056958;28;20438;-94
2022/06/25 04:33:39;;;;;;;1.80;1.70;;;;;;;;;;5058410;28;20438;-93
2022/06/25 04:36:07;;;;;;;1.83;1.73;;;;;;;;;;5058630;28;20458;-93
2022/06/25 04:38:34;;;;;;;2.47;2.10;;;;;;;;;;5058545;28;20453;-92
2022/06/25 04:41:01;;;;;;;1.83;1.73;;;;;;;;;;5056634;28;20475;-91
2022/06/25 04:43:29;;;;;;;1.67;1.57;;;14.40;99.90;;;;;;5056425;28;20508;-94
2022/06/25 04:45:56;;;;;;;4.30;1.80;;;;;;;;;;5052298;28;20450;-93
2022/06/25 04:48:24;;;;;;;1.40;1.30;;;;;;;;;;5055980;28;20438;-93
2022/06/25 04:50:51;;;;;;;1.63;1.53;;;;;;;;;;5053802;28;20983;-94
2022/06/25 04:53:18;;;;;;;2.00;1.60;;;;;;;;;;5059657;28;20449;-93
2022/06/25 04:55:45;;;;;;;1.87;1.77;;;;;;;;;;5054331;28;20443;-93
2022/06/25 04:58:12;;;;;;;1.73;1.60;;;;;;;;;;5053372;28;20478;-92
2022/06/25 05:00:41;;;;;;;1.60;1.50;;;14.90;99.90;;;;;;5056609;28;20450;-91
2022/06/25 05:03:08;;;;;;;2.13;1.93;;;;;;;;;;5055861;28;20625;-92
2022/06/25 05:05:36;;;;;;;1.27;1.17;;;;;;;;;;5052922;28;20447;-92
2022/06/25 05:08:03;;;;;;;2.10;1.90;;;;;;;;;;5055103;28;20463;-91
2022/06/25 05:10:30;;;;;;;2.00;1.90;;;;;;;;;;5057364;28;20450;-92
2022/06/25 05:13:13;;;;;;;1.80;1.63;;;;;;;;;;5058169;28;20443;-95
2022/06/25 05:15:42;;;;;;;1.90;1.53;;;15.30;99.90;;;;;;5055932;28;20465;-93
2022/06/25 05:18:11;;;;;;;3.10;1.63;;;15.30;99.90;;;;;;5063909;28;20439;-94
2022/06/25 05:20:39;;;;;;;1.80;1.70;;;15.30;99.90;;;;;;5056008;28;20434;-94
2022/06/25 05:23:06;;;;;;;1.80;1.63;;;;;;;;;;5055998;28;20465;-92
2022/06/25 05:25:33;;;;;;;1.53;1.43;;;;;;;;;;5055571;28;20439;-91
2022/06/25 05:28:00;;;;;;;2.40;1.30;;;;;;;;;;5055082;28;20461;-92
2022/06/25 05:30:28;;;;;;;1.80;1.70;;;;;;;;;;5051895;28;20505;-94
2022/06/25 05:32:56;;;;;;;1.77;1.40;;;15.80;99.90;;;;;;5051942;28;20455;-90
2022/06/25 05:35:23;;;;;;;1.50;1.40;;;;;;;;;;5050350;28;20442;-91
2022/06/25 05:37:50;;;;;;;2.87;1.37;;;;;;;;;;5051350;28;20450;-91
2022/06/25 05:40:17;;;;;;;1.60;1.50;;;;;;;;;;5054871;28;20434;-92
2022/06/25 05:42:45;;;;;;;3.33;1.67;;;;;;;;;;5054537;28;20490;-91
2022/06/25 05:45:12;;;;;;;1.77;1.60;;;18.10;99.90;;;;;;5051851;28;20459;-91
2022/06/25 05:47:39;;;;;;;1.40;1.30;;;;;;;;;;5051688;28;20439;-91
2022/06/25 05:50:09;;;;;;;1.63;1.53;;;17.70;99.90;;;;;;5051194;28;20462;-91
2022/06/25 05:52:37;;;;;;;1.27;1.13;;;;;;;;;;5053527;28;20477;-92
2022/06/25 05:55:05;;;;;;;1.63;1.20;;;18.40;99.90;;;;;;5051245;28;20454;-91
2022/06/25 05:57:32;;;;;;;1.20;1.00;;;;;;;;;;5050040;28;20435;-92
2022/06/25 05:59:59;;;;;;;6.40;2.70;;;;;;;;;;5051529;28;20446;-93
2022/06/25 06:02:26;;;;;;;1.17;1.07;;;;;;;;;;5054286;28;20493;-91
2022/06/25 06:04:54;;;;;;;1.30;1.20;;;;;;;;;;5054494;28;20443;-91
2022/06/25 06:07:22;;;;;;;1.37;1.27;;;20.00;99.90;;;;;;5054467;28;20497;-90
2022/06/25 06:09:49;;;;;;;1.40;1.30;;;;;;;;;;5055834;28;20430;-91
2022/06/25 06:12:17;;;;;;;2.70;1.30;;;;;;;;;;5054903;28;20814;-91
2022/06/25 06:14:44;;;;;;;2.00;1.17;;;;;;;;;;5055490;28;20454;-90
2022/06/25 06:17:11;;;;;;;1.07;0.93;;;;;;;;;;5055125;28;20449;-92
2022/06/25 06:19:38;;;;;;;1.07;1.00;;;;;;;;;;5051791;28;20439;-92
2022/06/25 06:22:05;;;;;;;1.67;1.10;;;19.10;99.90;;;;;;5054834;28;20474;-91
2022/06/25 06:24:34;;;;;;;1.10;1.00;;;19.20;99.90;;;;;;5051231;28;20877;-93
2022/06/25 06:27:01;;;;;;;1.37;1.27;;;;;;;;;;5054702;28;20450;-91
2022/06/25 06:29:28;;;;;;;1.00;0.90;;;;;;;;;;5055542;28;20453;-91
2022/06/25 06:31:55;;;;;;;5.73;1.27;;;;;;;;;;5052328;28;20451;-91
2022/06/25 06:34:22;;;;;;;3.70;1.27;;;;;;;;;;5055295;28;20434;-90
2022/06/25 06:36:49;;;;;;;1.30;1.20;;;;;;;;;;5051349;28;20450;-92
2022/06/25 06:39:16;;;;;;;1.20;1.10;;;;;;;;;;5053783;28;20442;-91
2022/06/25 06:41:45;;;;;;;1.17;1.07;;;19.90;99.90;;;;;;5054360;28;20504;-90
2022/06/25 06:44:13;;;;;;;1.37;1.00;;;;;;;;;;5054764;28;20465;-91
2022/06/25 06:46:40;;;;;;;1.33;1.23;;;;;;;;;;5051399;28;20855;-89
2022/06/25 06:49:07;;;;;;;1.40;1.27;;;;;;;;;;5054889;28;20466;-91
2022/06/25 06:51:34;;;;;;;1.40;0.90;;;;;;;;;;5054354;28;20820;-90
2022/06/25 06:54:01;;;;;;;2.20;1.50;;;;;;;;;;5051932;28;20458;-88
2022/06/25 06:56:28;;;;;;;2.07;1.10;;;;;;;;;;5054874;28;20447;-95
2022/06/25 06:58:57;;;;;;;2.67;1.27;;;20.20;99.90;;;;;;5055907;28;20478;-91
2022/06/25 07:01:24;;;;;;;3.23;1.03;;;;;;;;;;5055025;28;20488;-92
2022/06/25 07:03:51;;;;;;;1.10;1.00;;;;;;;;;;5057405;28;20827;-94
2022/06/25 07:06:18;;;;;;;2.43;1.40;;;;;;;;;;5057256;28;20474;-87
2022/06/25 07:08:45;;;;;;;1.20;1.10;;;;;;;;;;5057643;28;20447;-89
2022/06/25 07:11:30;;;;;;;1.97;1.00;;;;;;;;;;5054269;28;20508;-87
2022/06/25 07:14:00;;;;;;;1.60;1.50;;;21.50;99.90;;;;;;5056668;28;20443;-89
2022/06/25 07:16:27;;;;;;;1.30;1.20;;;;;;;;;;5056796;28;20937;-88
2022/06/25 07:18:55;;;;;;;1.30;1.00;;;;;;;;;;5056318;28;20455;-88
2022/06/25 07:21:22;;;;;;;2.30;1.43;;;;;;;;;;5056337;28;20784;-88
2022/06/25 07:23:49;;;;;;;1.13;0.97;;;;;;;;;;5055209;28;20442;-88
2022/06/25 07:26:17;;;;;;;1.30;1.20;;;;;;;;;;5056684;28;20451;-90
2022/06/25 07:28:44;;;;;;;1.67;1.57;;;;;;;;;;5056720;28;20461;-88
2022/06/25 07:31:12;;;;;;;3.70;1.30;;;23.00;99.90;;;;;;5056391;28;20450;-89
2022/06/25 07:33:39;;;;;;;1.80;1.00;;;;;;;;;;5056154;28;20451;-88
2022/06/25 07:36:07;;;;;;;2.40;1.20;;;;;;;;;;5056266;28;20489;-88
2022/06/25 07:38:34;;;;;;;3.70;1.23;;;;;;;;;;5056090;28;20528;-88
2022/06/25 07:41:02;;;;;;;1.63;1.20;;;;;;;;;;5056518;28;20450;-89
2022/06/25 07:43:29;;;;;;;1.50;1.20;;;;;;;;;;5058641;28;20497;-92
2022/06/25 07:45:58;;;;;;;1.70;1.57;;;22.20;99.90;;;;;;5056793;28;20789;-92
2022/06/25 07:48:26;;;;;;;1.60;1.30;;;;;;;;;;5053010;28;20446;-88
2022/06/25 07:53:38;;;;;;;1.43;1.33;;;;;;;;;;5055773;28;20434;-91
2022/06/25 07:56:06;;;;;;;2.13;1.47;;;;;;;;;;5057567;28;20472;-90
2022/06/25 07:58:34;;;;;;;1.13;1.03;;;;;;;;;;5055941;28;20482;-88
2022/06/25 08:01:01;;;;;;;1.73;1.03;;;;;;;;;;5055961;28;20474;-91
2022/06/25 08:03:29;;;;;;;2.53;1.23;;;23.70;99.90;;;;;;5050728;28;20823;-88
2022/06/25 08:05:57;;;;;;;3.03;2.83;;;;;;;;;;5056274;28;20470;-87
2022/06/25 08:08:24;;;;;;;3.80;2.73;;;;;;;;;;5062565;28;20814;-90
2022/06/25 08:10:51;;;;;;;1.80;1.60;;;;;;;;;;5071980;28;20443;-88
2022/06/25 08:13:18;;;;;;;2.67;1.67;;;;;;;;;;5068846;28;20850;-92
2022/06/25 08:15:45;;;;;;;2.00;1.67;;;;;;;;;;5057998;28;20435;-90
2022/06/25 08:18:12;;;;;;;1.67;1.57;;;;;;;;;;5062352;28;20450;-88
2022/06/25 08:20:40;;;;;;;1.83;1.70;;;24.90;95.50;;;;;;5057797;28;20454;-90
2022/06/25 08:23:07;;;;;;;2.23;1.70;;;;;;;;;;5052019;28;21078;-90
2022/06/25 08:25:35;;;;;;;1.67;1.57;;;;;;;;;;5053847;28;20431;-93
2022/06/25 08:28:02;;;;;;;2.70;1.70;;;;;;;;;;5055949;28;20442;-91
2022/06/25 08:30:29;;;;;;;0.90;0.90;;;;;;;;;;5021921;28;20442;-94
2022/06/25 08:32:56;;;;;;;3.27;1.87;;;;;;;;;;5057132;28;20449;-87
2022/06/25 08:35:23;;;;;;;1.77;1.67;;;;;;;;;;5056256;28;20929;-89
2022/06/25 08:37:52;;;;;;;7.33;3.53;;;23.80;97.80;;;;;;5077158;22;21155;-91
2022/06/25 08:40:21;;;;;;;1.40;1.30;;;24.40;96.30;;;;;;5076868;28;20446;-90
2022/06/25 08:42:48;;;;;;;1.93;1.37;;;25.10;94.60;;;;;;5076317;28;20479;-89
2022/06/25 08:45:16;;;;;;;2.00;1.27;;;;;;;;;;5075238;28;20450;-88
2022/06/25 08:47:44;;;;;;;2.27;1.60;;;;;;;;;;5074857;28;20503;-88
2022/06/25 08:50:13;;;;;;;1.97;1.50;;;24.70;93.80;;;;;;5071693;28;21005;-88
2022/06/25 08:52:43;;;;;;;1.30;1.20;;;25.00;93.70;;;;;;5073489;28;20810;-88
2022/06/25 08:55:15;;;;;;;1.30;1.20;;;24.70;96.60;;;;;;5075016;28;20450;-88
2022/06/25 08:57:42;;;;;;;1.97;1.40;;;;;;;;;;5076950;28;20442;-88
2022/06/25 09:00:11;;;;;;;1.77;1.33;;;;;;;;;;5074880;28;20454;-86
2022/06/25 09:02:39;;;;;;;1.90;1.37;;;;;;;;;;5074330;28;21058;-87
2022/06/25 09:05:08;;;;;;;1.40;1.30;;;26.20;92.80;;;;;;5074204;28;20564;-86
2022/06/25 09:07:35;;;;;;;2.17;1.20;;;;;;;;;;5073166;28;20457;-87
2022/06/25 09:10:02;;;;;;;1.40;1.30;;;;;;;;;;5071700;28;20438;-92
2022/06/25 09:12:33;;;;;;;1.50;1.40;;;26.90;89.00;;;;;;5074295;28;20457;-90
2022/06/25 09:15:00;;;;;;;2.13;1.70;;;;;;;;;;5074349;28;20457;-92
2022/06/25 09:17:27;;;;;;;1.43;1.33;;;;;;;;;;5071361;28;20448;-89
2022/06/25 09:19:57;;;;;;;1.80;1.50;;;;;;;;;;5073979;28;20441;-88
2022/06/25 09:22:25;;;;;;;1.90;1.23;;;27.10;84.70;;;;;;5073432;28;20485;-86
2022/06/25 09:24:55;;;;;;;1.70;1.60;;;26.70;86.70;;;;;;5073345;28;20489;-86
2022/06/25 09:27:36;;;;;;;3.80;1.40;;;26.10;87.30;;;;;;5074121;28;20461;-91
2022/06/25 09:30:10;;;;;;;2.07;1.87;;;26.60;86.50;;;;;;5073995;28;20445;-87
2022/06/25 09:32:43;;;;;;;1.67;1.50;;;25.70;89.80;;;;;;5069741;28;20458;-89
2022/06/25 09:35:11;;;;;;;1.60;1.50;;;;;;;;;;5074173;28;20450;-91
2022/06/25 09:37:38;;;;;;;2.13;1.67;;;;;;;;;;5072701;28;20453;-91
2022/06/25 09:40:06;;;;;;;2.93;1.37;;;;;;;;;;5071474;28;20441;-96
2022/06/25 09:42:35;;;;;;;4.23;1.73;;;26.70;84.90;;;;;;5074081;28;20496;-87
2022/06/25 09:45:11;;;;;;;2.40;1.60;;;24.80;90.00;;;;;;5074909;28;20450;-95
2022/06/25 09:47:39;;;;;;;2.07;1.87;;;24.50;93.00;;;;;;5071751;28;20883;-88
2022/06/25 09:50:10;;;;;;;2.77;2.03;;;25.70;90.30;;;;;;5073876;28;20525;-87
2022/06/25 09:52:37;;;;;;;1.50;1.40;;;;;;;;;;5076746;28;20457;-90
2022/06/25 09:55:05;;;;;;;1.70;1.60;;;;;;;;;;5071411;28;20442;-86
2022/06/25 09:57:32;;;;;;;2.00;1.73;;;26.00;87.70;;;;;;5073826;28;20445;-86
2022/06/25 10:00:01;;;;;;;7.03;2.50;;;26.40;83.90;;;;;;5073702;28;20503;-91
2022/06/25 10:02:31;;;;;;;1.97;1.60;;;26.60;82.30;;;;;;5070965;28;21039;-88
2022/06/25 10:05:03;;;;;;;2.00;1.60;;;27.00;83.40;;;;;;5073560;28;20462;-89
2022/06/25 10:10:20;;;;;;;1.40;1.30;;;27.00;79.20;;;;;;5074342;28;20420;-88
2022/06/25 10:12:47;;;;;;;1.43;1.33;;;;;;;;;;5072633;28;20495;-91
2022/06/25 10:15:16;;;;;;;1.40;1.30;;;26.40;82.00;;;;;;5073679;28;20968;-91
2022/06/25 10:17:47;;;;;;;2.47;1.20;;;25.30;88.10;;;;;;5073847;28;20445;-95
2022/06/25 10:20:14;;;;;;;3.97;1.70;;;;;;;;;;5070337;28;20450;-87
2022/06/25 10:22:42;;;;;;;3.07;1.57;;;26.30;83.40;;;;;;5073746;28;20489;-95
2022/06/25 10:25:11;;;;;;;2.90;1.50;;;25.10;89.10;;;;;;5069836;28;20461;-87
2022/06/25 10:27:42;;;;;;;2.20;1.40;;;24.50;90.20;;;;;;5073034;28;20460;-86
2022/06/25 10:30:10;;;;;;;2.00;1.80;;;24.70;90.70;;;;;;5072934;28;20450;-86
2022/06/25 10:32:47;;;;;;;2.80;1.10;;;25.00;87.70;;;;;;5072843;28;20458;-91
2022/06/25 10:35:29;;;;;;;8.30;1.60;;;26.30;85.30;;;;;;5072874;28;20452;-89
2022/06/25 10:38:02;;;;;;;3.07;1.77;;;26.60;83.90;;;;;;5071588;28;20489;-86
2022/06/25 10:40:29;;;;;;;2.60;2.40;;;;;;;;;;5072913;28;20450;-86
2022/06/25 10:43:01;;;;;;;1.87;1.77;;;;;;;;;;5072719;28;20481;-87
2022/06/25 10:45:52;;;;;;;1.60;1.50;;;25.50;82.30;;;;;;5079870;28;20418;-95
2022/06/25 10:48:23;;;;;;;2.60;2.13;;;26.10;85.00;;;;;;5075142;28;20803;-89
2022/06/25 10:50:51;;;;;;;4.43;2.00;;;26.60;80.10;;;;;;5075602;28;20454;-94
2022/06/25 10:53:27;;;;;;;2.20;1.63;;;26.20;80.70;;;;;;5077994;28;20445;-91
2022/06/25 10:56:17;;;;;;;4.13;1.60;;;26.20;80.80;;;;;;5074797;28;20477;-92
2022/06/25 10:58:48;;;;;;;1.60;1.50;;;26.20;81.60;;;;;;5078551;28;20531;-92
2022/06/25 11:01:30;;;;;;;1.87;1.77;;;26.00;82.40;;;;;;5078126;28;20457;-94
2022/06/25 11:04:01;;;;;;;3.20;1.80;;;25.80;88.00;;;;;;5069104;28;20489;-92
2022/06/25 11:06:30;;;;;;;1.80;1.60;;;;;;;;;;5073489;28;20555;-93
2022/06/25 11:09:14;;;;;;;175.77;94.53;;;26.40;99.90;;;;;;5072975;28;20450;-95
2022/06/25 11:11:54;;;;;;;10.80;6.63;;;;;;;;;;5076547;28;21104;-94
2022/06/25 11:14:24;;;;;;;3.63;1.67;;;25.80;86.10;;;;;;5074754;28;20532;-93
2022/06/25 11:16:52;;;;;;;2.27;1.63;;;26.40;85.50;;;;;;5073321;28;20495;-92
2022/06/25 11:19:21;;;;;;;2.27;1.87;;;;;;;;;;5073640;28;20442;-91
2022/06/25 11:21:49;;;;;;;1.97;1.63;;;26.40;82.70;;;;;;5070259;28;20449;-92
2022/06/25 11:24:20;;;;;;;2.33;2.03;;;26.70;91.30;;;;;;5072461;28;20484;-92
2022/06/25 11:29:35;;;;;;;5.47;4.97;;;;;;;;;;5073625;28;20955;-88
2022/06/25 11:32:02;;;;;;;9.87;7.30;;;;;;;;;;5072583;28;20445;-89
2022/06/25 11:34:31;;;;;;;2.20;1.70;;;25.80;90.90;;;;;;5072914;28;20568;-90
2022/06/25 11:37:03;;;;;;;1.63;1.53;;;25.10;92.00;;;;;;5072659;28;20808;-92
2022/06/25 11:39:31;;;;;;;1.67;1.57;;;;;;;;;;5066759;28;20478;-94
2022/06/25 11:41:58;;;;;;;3.97;2.27;;;;;;;;;;5078784;28;20460;-92
2022/06/25 11:44:26;;;;;;;1.97;1.70;;;;;;;;;;5073930;28;20576;-94
2022/06/25 11:46:55;;;;;;;1.57;1.47;;;;;;;;;;5071554;28;20464;-93
2022/06/25 11:49:23;;;;;;;4.97;1.83;;;;;;;;;;5078672;28;20464;-92
2022/06/25 11:51:55;;;;;;;2.53;1.43;;;24.00;89.30;;;;;;5079797;28;20473;-94
2022/06/25 11:54:24;;;;;;;4.70;2.00;;;25.20;85.90;;;;;;5078195;28;20465;-94
2022/06/25 11:56:54;;;;;;;1.70;1.60;;;26.20;90.90;;;;;;5072886;28;20453;-93
2022/06/25 11:59:26;;;;;;;2.90;2.13;;;;;;;;;;5073993;28;20515;-92
2022/06/25 12:01:54;;;;;;;1.97;1.30;;;;;;;;;;5079896;28;20446;-92
2022/06/25 12:04:21;;;;;;;2.30;2.10;;;;;;;;;;5080063;28;20443;-92
2022/06/25 12:06:49;;;;;;;1.57;1.40;;;;;;;;;;5073615;28;20434;-93
2022/06/25 12:09:24;;;;;;;1.57;1.30;;;24.70;84.90;;;;;;5080814;28;20454;-93
2022/06/25 12:11:55;;;;;;;1.60;1.50;;;;;;;;;;5023173;28;20483;-92
2022/06/25 12:14:23;;;;;;;2.70;1.70;;;24.60;80.70;;;;;;5014067;28;20495;-93
2022/06/25 12:16:51;;;;;;;1.43;1.30;;;25.60;81.00;;;;;;5011568;28;20463;-94
2022/06/25 12:19:19;;;;;;;2.23;1.90;;;26.30;86.30;;;;;;5006895;28;20452;-93
2022/06/25 12:21:47;;;;;;;2.73;2.13;;;;;;;;;;5015065;28;20433;-92
2022/06/25 12:24:15;;;;;;;75.73;61.93;;;26.90;99.40;;;;;;5015440;28;20827;-94
2022/06/25 12:26:52;;;;;;;32.70;18.43;;;26.90;94.50;;;;;;5013784;28;20440;-89
2022/06/25 12:29:20;;;;;;;1.63;1.20;;;27.00;86.20;;;;;;5013881;28;20452;-94
2022/06/25 12:31:54;;;;;;;1.77;1.67;;;26.00;91.60;;;;;;5011178;28;20455;-85
2022/06/25 12:34:21;;;;;;;1.40;1.30;;;;;;;;;;5015259;28;20500;-90
2022/06/25 12:36:50;;;;;;;2.03;1.10;;;26.50;76.30;;;;;;5055451;28;20457;-91
2022/06/25 12:39:31;;;;;;;1.60;1.50;;;26.90;74.90;;;;;;5074259;28;20477;-92
2022/06/25 12:42:04;;;;;;;1.30;1.20;;;27.10;74.20;;;;;;5072659;28;20449;-92
2022/06/25 12:44:33;;;;;;;1.33;1.23;;;26.90;71.10;;;;;;5075576;28;20465;-89
2022/06/25 12:47:02;;;;;;;1.63;1.50;;;27.00;73.70;;;;;;5075724;28;20441;-89
2022/06/25 12:49:45;;;;;;;1.80;1.70;;;26.70;74.60;;;;;;5071398;28;20540;-89
2022/06/25 12:52:14;;;;;;;1.83;1.60;;;27.10;78.20;;;;;;5076198;28;20821;-87
2022/06/25 12:54:43;;;;;;;2.33;1.10;;;27.60;83.00;;;;;;5074298;28;20497;-93
2022/06/25 12:57:18;;;;;;;4.27;2.00;;;;;;;;;;5090975;22;20492;-92
2022/06/25 12:59:46;;;;;;;3.23;1.70;;;27.30;74.90;;;;;;5079210;28;20473;-93
2022/06/25 13:02:13;;;;;;;2.03;1.50;;;;;;;;;;5079942;28;20465;-87
2022/06/25 13:04:41;;;;;;;1.60;1.50;;;;;;;;;;5074923;28;20438;-91
2022/06/25 13:07:08;;;;;;;1.47;1.37;;;;;;;;;;5074580;28;20461;-89
2022/06/25 13:09:35;;;;;;;1.83;1.60;;;;;;;;;;5073208;28;20446;-89
2022/06/25 13:12:03;;;;;;;2.43;1.13;;;;;;;;;;5075956;28;20932;-91
2022/06/25 13:14:31;;;;;;;1.40;1.30;;;26.80;74.40;;;;;;5074154;28;20992;-90
2022/06/25 13:16:58;;;;;;;2.10;1.53;;;;;;;;;;5077981;28;20442;-95
2022/06/25 13:19:25;;;;;;;1.60;1.50;;;;;;;;;;5076907;28;20442;-92
2022/06/25 13:21:52;;;;;;;2.30;1.60;;;;;;;;;;5072008;28;20446;-92
2022/06/25 13:24:19;;;;;;;1.87;1.67;;;;;;;;;;5073607;28;20449;-92
2022/06/25 13:26:46;;;;;;;1.50;1.40;;;;;;;;;;5071090;28;20449;-93
2022/06/25 13:29:14;;;;;;;1.90;1.70;;;;;;;;;;5071990;28;20503;-91
2022/06/25 13:31:42;;;;;;;2.07;1.50;;;;;;;;;;5072128;28;20453;-92
2022/06/25 13:34:09;;;;;;;1.20;1.10;;;;;;;;;;5074662;28;20496;-91
2022/06/25 13:36:36;;;;;;;1.73;1.63;;;;;;;;;;5077804;28;20441;-91
2022/06/25 13:39:05;;;;;;;1.53;1.43;;;27.30;73.50;;;;;;5078656;28;20464;-89
2022/06/25 13:41:32;;;;;;;2.33;1.33;;;;;;;;;;5075700;28;20540;-91
2022/06/25 13:43:59;;;;;;;1.53;1.30;;;;;;;;;;5072517;28;20800;-87
2022/06/25 13:46:27;;;;;;;1.50;1.40;;;;;;;;;;5074746;28;20449;-92
2022/06/25 13:48:55;;;;;;;1.70;1.60;;;;;;;;;;5073672;28;20437;-90
2022/06/25 13:51:22;;;;;;;1.87;1.67;;;;;;;;;;5074045;28;20948;-86
2022/06/25 13:53:50;;;;;;;1.53;1.30;;;;;;;;;;5072288;28;20470;-88
2022/06/25 13:56:19;;;;;;;3.10;2.03;;;27.90;73.00;;;;;;5078864;28;20458;-93
2022/06/25 13:58:46;;;;;;;1.30;1.20;;;;;;;;;;5080915;28;20480;-90
2022/06/25 14:01:14;;;;;;;1.70;1.57;;;;;;;;;;5080044;28;20476;-93
2022/06/25 14:03:41;;;;;;;1.50;1.40;;;;;;;;;;5077256;28;20449;-91
2022/06/25 14:06:09;;;;;;;1.47;1.37;;;26.10;81.60;;;;;;5074441;28;20450;-91
2022/06/25 14:08:37;;;;;;;1.27;1.17;;;;;;;;;;5069954;28;20499;-91
2022/06/25 14:11:04;;;;;;;1.70;1.50;;;;;;;;;;5077053;28;20453;-92
2022/06/25 14:13:31;;;;;;;1.40;1.30;;;;;;;;;;5071145;28;20448;-90
2022/06/25 14:16:01;;;;;;;2.50;1.57;;;;;;;;;;5074543;28;20454;-90
2022/06/25 14:18:28;;;;;;;1.70;1.57;;;;;;;;;;5073579;28;20963;-90
2022/06/25 14:20:56;;;;;;;1.67;1.57;;;;;;;;;;5070824;28;20452;-91
2022/06/25 14:23:24;;;;;;;1.40;1.30;;;26.00;78.00;;;;;;5072444;28;20499;-91
2022/06/25 14:25:51;;;;;;;1.70;1.60;;;;;;;;;;5073499;28;20452;-93
2022/06/25 14:28:18;;;;;;;1.63;1.50;;;;;;;;;;5073820;28;20446;-92
2022/06/25 14:30:46;;;;;;;2.00;1.43;;;;;;;;;;5074427;28;20803;-91